Pond Eddy, New York
Current Conditions -  °F | °C
As of 1:15 PM on Wednesday 28 Jan 2015 (Local Time) from KMSV Reporting Station
Clear Clear  
Wind Chill: -14°   Ceiling: Unl
Heat Index: -6°   Visibility: 10mi
Dew Point: -14°   Wind: 17mph
Humidity: 54%   Direction: 320°NW
Pressure: 30.04"   Gusts: 25mph
Location:  41.44°N, 74.82°W
Report Text: KMSV 281815Z AUTO 32015G22KT 10SM CLR M06/M14 A3004 RMK AO1
Loading
Personal Weather Stations






























Interactive Weather Map New forecast layout! Learn more

10-Day Weather Forecast

Advertisements
Track Severe Weather on mobile